Hanford, CA

10:23 AM PST on February 10, 2016 (GMT -0800)
North Hanford | | Change Station
CLOSE
Current Station
Personal Weather Station
Location: Hanford, CA
Elevation: 249 ft
Nearby Weather Stations

Elev 249 ft 36.36 °N, 119.66 °W | Updated 3 seconds ago

Haze
Haze
61.2 °F
Feels Like 61.2 °F
N
0.0
Wind Variable Wind from SSE
Gusts 2.7 mph

Today
High -- | Low -- °F
--% Chance of Precip.
Yesterday
High -- | Low -- °F
Precip. -- in
Pressure 30.28 in
Visibility 4.0 miles
Clouds Clear
Dew Point 57 °F
Humidity 87%
Rainfall 0.00 in
Snow Depth Not available.
6:52 AM 5:34 PM
Waxing Crescent, 6% visible
METAR KHJO 101753Z AUTO 00000KT 4SM HZ CLR 14/11 A3027 RMK AO2 SLP252 T01390106 10139 20050 51004
Pressure 30.28 in
Visibility 4.0 miles
Clouds Clear
Dew Point 57 °F
Humidity 87%
Rainfall 0.00 in
Snow Depth Not available.
6:52 AM 5:34 PM
Waxing Crescent, 6% visible
METAR KHJO 101753Z AUTO 00000KT 4SM HZ CLR 14/11 A3027 RMK AO2 SLP252 T01390106 10139 20050 51004

10-Day Weather Forecast

Almanac

Astronomy

Feb. 10, 2016 Rise Set
Actual Time
Civil Twilight
Nautical Twilight
Astronomical Twilight
Moon
Length of Visible Light
Length of Day
Tomorrow will be .
, % of the Moon is Illuminated

Today's Extremes

State Highs State Lows

Community

WunderPhotos

Upload Photos

1,891,907 photos uploaded!

WunderBlog® & News

Nearby

Air Quality

  Air Quality AQ Index Pollutant
Not available.

Snow Depth

Station Depth Elevation

Earthquake Activity

City Distance Mag. Time & Date
Minimum magnitude displayed is 2.5.

Coastal Water Temperatures

Place Temperature

Stations

Nearby Weather Stations

Station Location Temp. Windchill Dew Point Humidity Wind Precip. Elev Updated Type
                   

Watches & Warnings

There are currently no watches in effect.